createdAt,value
2022-08-19T00:01:30.316Z,10.38
2022-08-19T00:04:37.593Z,9.30
2022-08-19T00:07:43.828Z,10.20
2022-08-19T00:10:46.897Z,10.23
2022-08-19T00:16:55.679Z,9.53
2022-08-19T00:19:58.382Z,9.63
2022-08-19T00:23:02.230Z,9.70
2022-08-19T00:26:05.288Z,9.80
2022-08-19T00:32:11.673Z,9.77
2022-08-19T00:35:18.369Z,10.10
2022-08-19T00:38:35.197Z,9.77
2022-08-19T00:41:41.845Z,10.53
2022-08-19T00:44:44.882Z,10.17
2022-08-19T00:50:52.452Z,10.32
2022-08-19T00:53:57.787Z,10.27
2022-08-19T00:57:01.378Z,11.47
2022-08-19T01:00:08.154Z,10.73
2022-08-19T01:03:16.108Z,9.90
2022-08-19T01:06:22.124Z,10.23
2022-08-19T01:09:26.217Z,10.57
2022-08-19T01:12:28.926Z,10.00
2022-08-19T01:15:34.854Z,10.43
2022-08-19T01:18:40.745Z,10.10
2022-08-19T01:21:48.080Z,10.17
2022-08-19T01:24:52.805Z,10.63
2022-08-19T01:28:10.627Z,10.53
2022-08-19T01:31:27.265Z,9.90
2022-08-19T01:34:30.545Z,10.77
2022-08-19T01:37:44.144Z,9.52
2022-08-19T01:40:48.264Z,11.17
2022-08-19T01:44:03.155Z,10.93
2022-08-19T01:47:14.115Z,11.13
2022-08-19T01:50:16.791Z,11.13
2022-08-19T01:53:19.448Z,11.95
2022-08-19T01:56:24.249Z,11.32
2022-08-19T01:59:27.110Z,12.50
2022-08-19T02:02:29.754Z,11.52
2022-08-19T02:05:32.751Z,11.88
2022-08-19T02:08:38.156Z,12.10
2022-08-19T02:11:43.399Z,12.03
2022-08-19T02:14:46.014Z,10.97
2022-08-19T02:17:49.403Z,10.93
2022-08-19T02:20:52.088Z,12.13
2022-08-19T02:23:54.931Z,11.57
2022-08-19T02:26:59.659Z,12.68
2022-08-19T02:30:02.800Z,12.03
2022-08-19T02:36:10.220Z,13.02
2022-08-19T02:39:12.804Z,13.17
2022-08-19T02:42:16.744Z,13.43
2022-08-19T02:45:19.677Z,13.47
2022-08-19T02:48:24.323Z,12.48
2022-08-19T02:51:29.675Z,13.53
2022-08-19T02:54:32.465Z,13.67
2022-08-19T02:57:36.790Z,13.48
2022-08-19T03:00:44.442Z,14.87
2022-08-19T03:03:47.367Z,14.50
2022-08-19T03:06:50.268Z,13.80
2022-08-19T03:09:52.962Z,13.38
2022-08-19T03:12:56.914Z,14.15
2022-08-19T03:15:59.568Z,15.03
2022-08-19T03:19:03.446Z,14.57
2022-08-19T03:22:06.317Z,15.03
2022-08-19T03:25:10.051Z,13.70
2022-08-19T03:28:15.922Z,16.17
2022-08-19T03:31:43.518Z,15.23
2022-08-19T03:34:43.703Z,15.50
2022-08-19T03:37:46.308Z,15.25
2022-08-19T03:40:48.879Z,16.38
2022-08-19T03:43:54.297Z,14.48
2022-08-19T03:46:59.201Z,16.37
2022-08-19T03:50:02.483Z,15.93
2022-08-19T03:53:05.346Z,16.53
2022-08-19T03:56:10.850Z,15.10
2022-08-19T03:59:17.462Z,15.70
2022-08-19T04:02:20.846Z,16.00
2022-08-19T04:05:27.582Z,15.90
2022-08-19T04:08:31.209Z,15.97
2022-08-19T04:11:42.910Z,17.23
2022-08-19T04:14:48.236Z,16.35
2022-08-19T04:17:50.969Z,16.00
2022-08-19T04:20:53.871Z,15.88
2022-08-19T04:23:57.847Z,14.68
2022-08-19T04:27:01.652Z,16.80
2022-08-19T04:30:07.218Z,17.47
2022-08-19T04:33:10.042Z,17.93
2022-08-19T04:36:18.273Z,17.65
2022-08-19T04:39:45.698Z,16.97
2022-08-19T04:42:47.754Z,17.13
2022-08-19T04:45:56.382Z,17.67
2022-08-19T04:49:00.079Z,18.00
2022-08-19T04:55:15.654Z,16.77
2022-08-19T04:58:18.479Z,13.15
2022-08-19T05:01:24.445Z,17.73
2022-08-19T05:04:27.486Z,17.20
2022-08-19T05:07:32.167Z,17.95
2022-08-19T05:10:37.475Z,17.47
2022-08-19T05:13:40.525Z,16.87
2022-08-19T05:16:46.295Z,17.73
2022-08-19T05:20:06.940Z,17.60
2022-08-19T05:23:13.057Z,17.37
2022-08-19T05:26:27.097Z,17.63
2022-08-19T05:29:36.544Z,16.37
2022-08-19T05:32:41.431Z,16.67
2022-08-19T05:35:45.179Z,17.00
2022-08-19T05:38:51.559Z,17.37
2022-08-19T05:41:59.282Z,16.97
2022-08-19T05:45:02.881Z,15.97
2022-08-19T05:48:07.814Z,17.07
2022-08-19T05:51:10.559Z,16.70
2022-08-19T05:54:15.137Z,15.07
2022-08-19T05:57:18.438Z,17.37
2022-08-19T06:00:24.667Z,16.50
2022-08-19T06:03:30.391Z,17.10
2022-08-19T06:06:35.211Z,17.73
2022-08-19T06:09:38.821Z,16.47
2022-08-19T06:12:42.390Z,15.07
2022-08-19T06:15:47.544Z,17.47
2022-08-19T06:18:53.603Z,16.30
2022-08-19T06:21:56.201Z,16.37
2022-08-19T06:24:59.701Z,17.17
2022-08-19T06:28:19.616Z,17.47
2022-08-19T06:31:25.216Z,16.83
2022-08-19T06:34:31.659Z,14.93
2022-08-19T06:37:34.706Z,17.23
2022-08-19T06:40:39.479Z,17.30
2022-08-19T06:43:44.122Z,18.53
2022-08-19T06:46:53.566Z,17.83
2022-08-19T06:50:03.408Z,18.40
2022-08-19T06:53:07.957Z,17.33
2022-08-19T06:56:10.849Z,18.97
2022-08-19T06:59:15.802Z,18.83
2022-08-19T07:02:20.869Z,19.10
2022-08-19T07:05:25.185Z,18.33
2022-08-19T07:08:29.360Z,18.30
2022-08-19T07:11:33.587Z,17.93
2022-08-19T07:14:38.251Z,17.13
2022-08-19T07:17:42.644Z,14.87
2022-08-19T07:20:49.635Z,17.80
2022-08-19T07:23:53.599Z,17.57
2022-08-19T07:27:01.614Z,17.63
2022-08-19T07:30:05.928Z,16.80
2022-08-19T07:33:09.169Z,16.40
2022-08-19T07:39:19.288Z,14.87
2022-08-19T07:42:23.067Z,15.43
2022-08-19T07:45:26.079Z,15.77
2022-08-19T07:48:29.874Z,15.88
2022-08-19T07:51:36.904Z,15.87
2022-08-19T07:54:41.826Z,17.17
2022-08-19T08:00:52.843Z,16.33
2022-08-19T08:07:36.485Z,17.73
2022-08-19T08:10:39.599Z,16.98
2022-08-19T08:13:45.140Z,16.03
2022-08-19T08:16:48.371Z,16.40
2022-08-19T08:23:13.655Z,17.50
2022-08-19T08:26:17.259Z,17.77
2022-08-19T08:29:22.502Z,18.00
2022-08-19T08:32:28.952Z,17.97
2022-08-19T08:35:31.921Z,17.17
2022-08-19T08:38:41.195Z,15.75
2022-08-19T08:41:49.185Z,16.27
2022-08-19T08:48:22.281Z,16.53
2022-08-19T08:51:34.842Z,17.70
2022-08-19T08:54:48.839Z,15.60
2022-08-19T08:58:03.924Z,17.37
2022-08-19T09:01:07.143Z,15.60
2022-08-19T09:04:10.038Z,15.77
2022-08-19T09:07:35.030Z,16.25
2022-08-19T09:10:45.716Z,14.93
2022-08-19T09:13:58.076Z,14.50
2022-08-19T09:17:01.611Z,12.20
2022-08-19T09:20:09.564Z,14.33
2022-08-19T09:23:13.081Z,13.30
2022-08-19T09:26:18.769Z,15.17
2022-08-19T09:29:22.858Z,14.73
2022-08-19T09:32:27.192Z,15.07
2022-08-19T09:35:31.761Z,14.70
2022-08-19T09:38:34.795Z,13.27
2022-08-19T09:41:39.034Z,13.88
2022-08-19T09:44:49.955Z,25.33
2022-08-19T09:47:55.515Z,13.73
2022-08-19T09:51:04.918Z,13.00
2022-08-19T09:54:07.871Z,14.60
2022-08-19T09:57:15.913Z,11.00
2022-08-19T10:00:18.756Z,12.30
2022-08-19T10:03:21.518Z,10.50
2022-08-19T10:06:45.567Z,12.27
2022-08-19T10:09:49.241Z,12.63
2022-08-19T10:12:56.131Z,11.65
2022-08-19T10:16:05.879Z,11.17
2022-08-19T10:19:10.335Z,12.47
2022-08-19T10:22:15.380Z,11.60
2022-08-19T10:25:18.797Z,11.37
2022-08-19T10:28:24.031Z,12.30
2022-08-19T10:32:01.094Z,12.37
2022-08-19T10:34:52.916Z,11.70
2022-08-19T10:38:02.502Z,11.67
2022-08-19T10:41:11.307Z,11.30
2022-08-19T10:44:17.209Z,10.30
2022-08-19T10:47:25.773Z,11.50
2022-08-19T10:50:46.867Z,11.43
2022-08-19T10:53:50.488Z,10.90
2022-08-19T10:56:52.248Z,10.18
2022-08-19T10:59:56.412Z,9.57
2022-08-19T11:02:59.171Z,8.43
2022-08-19T11:06:02.551Z,9.00
2022-08-19T11:09:05.678Z,8.30
2022-08-19T11:15:16.042Z,9.13
2022-08-19T11:18:19.030Z,8.80
2022-08-19T11:24:28.389Z,7.67
2022-08-19T11:27:31.566Z,7.83
2022-08-19T11:30:35.579Z,8.07
2022-08-19T11:33:38.363Z,7.10
2022-08-19T11:36:43.572Z,6.97
2022-08-19T11:39:46.347Z,7.00
2022-08-19T11:42:59.331Z,6.53
2022-08-19T11:46:07.729Z,6.83
2022-08-19T11:49:14.073Z,6.10
2022-08-19T11:52:17.060Z,7.63
2022-08-19T11:55:20.561Z,8.77
2022-08-19T11:58:23.596Z,9.23
2022-08-19T12:01:28.574Z,11.50
2022-08-19T12:04:31.685Z,11.05
2022-08-19T12:07:35.290Z,10.13
2022-08-19T12:10:38.410Z,10.73
2022-08-19T12:13:42.122Z,9.60
2022-08-19T12:16:51.115Z,10.00
2022-08-19T12:19:55.130Z,9.80
2022-08-19T12:22:57.975Z,8.60
2022-08-19T12:26:00.811Z,8.77
2022-08-19T12:29:03.766Z,9.73
2022-08-19T12:35:15.004Z,9.00
2022-08-19T12:41:23.362Z,9.88
2022-08-19T12:44:29.157Z,9.95
2022-08-19T12:47:34.375Z,10.30
2022-08-19T12:50:41.702Z,11.95
2022-08-19T12:53:44.908Z,12.40
2022-08-19T12:56:48.179Z,11.10
2022-08-19T12:59:54.655Z,11.82
2022-08-19T13:02:59.026Z,10.45
2022-08-19T13:06:01.866Z,9.75
2022-08-19T13:12:13.919Z,10.27
2022-08-19T13:15:23.756Z,10.65
2022-08-19T13:18:28.329Z,11.90
2022-08-19T13:21:32.578Z,11.90
2022-08-19T13:24:37.602Z,11.65
2022-08-19T13:27:41.267Z,14.43
2022-08-19T13:31:01.491Z,13.93
2022-08-19T13:34:06.708Z,15.75
2022-08-19T13:37:10.152Z,16.10
2022-08-19T13:40:17.040Z,17.47
2022-08-19T13:43:22.988Z,19.03
2022-08-19T13:46:26.319Z,18.67
2022-08-19T13:49:32.093Z,18.67
2022-08-19T13:52:35.059Z,18.77
2022-08-19T13:58:40.889Z,19.20
2022-08-19T14:01:44.259Z,20.30
2022-08-19T14:04:48.448Z,20.67
2022-08-19T14:07:51.886Z,19.90
2022-08-19T14:10:54.648Z,19.93
2022-08-19T14:13:57.320Z,19.98
2022-08-19T14:17:00.589Z,22.90
2022-08-19T14:20:10.963Z,24.53
2022-08-19T14:23:14.762Z,21.67
2022-08-19T14:26:18.992Z,21.80
2022-08-19T14:29:21.667Z,20.83
2022-08-19T14:32:27.703Z,19.23
2022-08-19T14:35:35.660Z,19.33
2022-08-19T14:38:38.418Z,19.00
2022-08-19T14:41:43.453Z,18.83
2022-08-19T14:44:46.910Z,16.63
2022-08-19T14:47:49.660Z,15.37
2022-08-19T14:50:53.946Z,15.45
2022-08-19T14:53:57.579Z,15.50
2022-08-19T14:57:01.309Z,16.20
2022-08-19T15:00:06.176Z,16.17
2022-08-19T15:03:09.094Z,14.37
2022-08-19T15:06:13.667Z,15.43
2022-08-19T15:09:16.529Z,13.27
2022-08-19T15:12:21.966Z,12.52
2022-08-19T15:15:25.550Z,12.47
2022-08-19T15:18:28.345Z,11.25
2022-08-19T15:24:36.437Z,10.77
2022-08-19T15:27:51.537Z,12.05
2022-08-19T15:30:54.820Z,12.07
2022-08-19T15:33:59.267Z,11.27
2022-08-19T15:37:06.065Z,12.13
2022-08-19T15:40:10.148Z,12.38
2022-08-19T15:43:12.995Z,11.70
2022-08-19T15:49:21.112Z,12.65
2022-08-19T15:52:25.671Z,11.80
2022-08-19T15:55:34.698Z,13.10
2022-08-19T15:58:55.147Z,10.75
2022-08-19T16:02:15.594Z,10.50
2022-08-19T16:05:39.714Z,10.63
2022-08-19T16:08:49.230Z,9.95
2022-08-19T16:11:56.837Z,11.02
2022-08-19T16:15:00.137Z,12.25
2022-08-19T16:18:04.048Z,11.85
2022-08-19T16:21:08.026Z,11.70
2022-08-19T16:24:13.951Z,11.07
2022-08-19T16:27:17.042Z,11.98
2022-08-19T16:30:19.787Z,11.13
2022-08-19T16:36:26.711Z,12.93
2022-08-19T16:39:32.614Z,13.93
2022-08-19T16:42:35.811Z,13.02
2022-08-19T16:45:38.593Z,14.20
2022-08-19T16:48:46.609Z,14.60
2022-08-19T16:51:49.594Z,13.93
2022-08-19T16:57:56.513Z,13.00
2022-08-19T17:04:06.909Z,14.43
2022-08-19T17:07:10.622Z,13.93
2022-08-19T17:10:14.740Z,15.20
2022-08-19T17:13:18.010Z,15.30
2022-08-19T17:16:24.465Z,14.77
2022-08-19T17:19:27.407Z,14.60
2022-08-19T17:22:30.263Z,15.18
2022-08-19T17:25:35.079Z,14.43
2022-08-19T17:28:37.728Z,14.60
2022-08-19T17:31:40.635Z,14.95
2022-08-19T17:34:44.272Z,16.20
2022-08-19T17:37:47.234Z,13.93
2022-08-19T17:40:51.776Z,14.95
2022-08-19T17:43:55.518Z,13.60
2022-08-19T17:46:58.401Z,14.00
2022-08-19T17:50:01.065Z,15.15
2022-08-19T17:53:05.824Z,15.02
2022-08-19T17:56:10.606Z,13.90
2022-08-19T17:59:14.517Z,13.80
2022-08-19T18:02:21.984Z,13.53
2022-08-19T18:05:29.434Z,12.97
2022-08-19T18:08:32.933Z,13.00
2022-08-19T18:11:36.936Z,13.90
2022-08-19T18:14:40.144Z,13.27
2022-08-19T18:17:43.021Z,14.40
2022-08-19T18:20:46.111Z,15.20
2022-08-19T18:26:53.146Z,13.27
2022-08-19T18:29:59.435Z,14.37
2022-08-19T18:33:08.606Z,12.60
2022-08-19T18:36:12.072Z,14.83
2022-08-19T18:39:32.691Z,13.82
2022-08-19T18:42:54.104Z,14.13
2022-08-19T18:46:14.384Z,12.57
2022-08-19T18:49:18.239Z,14.27
2022-08-19T18:52:22.349Z,14.23
2022-08-19T18:55:26.868Z,13.57
2022-08-19T18:58:34.755Z,13.43
2022-08-19T19:01:39.487Z,14.27
2022-08-19T19:04:42.351Z,12.97
2022-08-19T19:07:45.184Z,13.82
2022-08-19T19:10:47.794Z,14.95
2022-08-19T19:13:55.472Z,13.80
2022-08-19T19:16:58.929Z,13.50
2022-08-19T19:20:01.541Z,13.60
2022-08-19T19:23:04.375Z,13.88
2022-08-19T19:26:09.630Z,13.00
2022-08-19T19:29:14.087Z,15.13
2022-08-19T19:32:19.827Z,16.07
2022-08-19T19:35:22.710Z,15.50
2022-08-19T19:38:25.718Z,15.90
2022-08-19T19:41:28.413Z,15.10
2022-08-19T19:44:32.738Z,14.55
2022-08-19T19:47:35.527Z,15.20
2022-08-19T19:50:38.286Z,13.85
2022-08-19T19:53:41.727Z,14.23
2022-08-19T19:56:46.044Z,22.20
2022-08-19T19:59:51.554Z,13.80
2022-08-19T20:02:56.024Z,11.80
2022-08-19T20:06:00.274Z,11.83
2022-08-19T20:09:10.445Z,11.83
2022-08-19T20:12:13.211Z,11.50
2022-08-19T20:15:17.318Z,10.65
2022-08-19T20:18:19.991Z,11.50
2022-08-19T20:21:22.704Z,9.68
2022-08-19T20:24:28.032Z,11.85
2022-08-19T20:27:37.174Z,13.27
2022-08-19T20:30:46.387Z,13.87
2022-08-19T20:33:49.953Z,13.60
2022-08-19T20:39:55.076Z,12.97
2022-08-19T20:42:58.005Z,12.90
2022-08-19T20:46:03.552Z,11.77
2022-08-19T20:49:06.520Z,11.43
2022-08-19T20:52:09.283Z,11.18
2022-08-19T20:55:13.299Z,10.07
2022-08-19T20:58:17.037Z,7.43
2022-08-19T21:01:21.120Z,6.63
2022-08-19T21:04:25.027Z,5.90
2022-08-19T21:07:39.163Z,4.95
2022-08-19T21:10:42.698Z,5.50
2022-08-19T21:13:45.331Z,4.47
2022-08-19T21:16:50.447Z,4.32
2022-08-19T21:19:53.292Z,3.57
2022-08-19T21:22:56.005Z,3.30
2022-08-19T21:26:00.416Z,3.40
2022-08-19T21:29:03.148Z,3.97
2022-08-19T21:32:07.590Z,3.50
2022-08-19T21:35:10.437Z,3.63
2022-08-19T21:38:13.027Z,3.08
2022-08-19T21:41:15.780Z,3.08
2022-08-19T21:44:18.486Z,2.42
2022-08-19T21:47:22.550Z,2.40
2022-08-19T21:50:28.588Z,1.67
2022-08-19T21:53:34.445Z,1.47
2022-08-19T21:56:39.991Z,2.30
2022-08-19T21:59:44.060Z,1.40
2022-08-19T22:02:48.315Z,1.70
2022-08-19T22:05:50.990Z,1.43
2022-08-19T22:08:55.431Z,1.80
2022-08-19T22:11:58.322Z,1.27
2022-08-19T22:15:01.772Z,1.15
2022-08-19T22:18:06.040Z,1.23
2022-08-19T22:21:11.930Z,1.30
2022-08-19T22:24:14.661Z,1.50
2022-08-19T22:27:17.333Z,1.60
2022-08-19T22:30:22.481Z,1.20
2022-08-19T22:33:27.663Z,1.47
2022-08-19T22:36:31.612Z,1.10
2022-08-19T22:39:35.065Z,1.40
2022-08-19T22:42:38.836Z,1.38
2022-08-19T22:45:42.346Z,1.30
2022-08-19T22:48:47.118Z,1.30
2022-08-19T22:52:07.477Z,1.20
2022-08-19T22:55:10.536Z,1.20
2022-08-19T23:01:27.583Z,1.30
2022-08-19T23:04:34.893Z,1.30
2022-08-19T23:07:38.391Z,1.40
2022-08-19T23:10:41.173Z,1.40
2022-08-19T23:13:43.882Z,1.17
2022-08-19T23:16:51.053Z,1.15
2022-08-19T23:19:55.642Z,1.40
2022-08-19T23:22:58.638Z,1.30
2022-08-19T23:26:01.182Z,1.65
2022-08-19T23:29:21.856Z,1.20
2022-08-19T23:32:25.420Z,1.03
2022-08-19T23:35:33.643Z,1.20
2022-08-19T23:38:36.443Z,1.17
2022-08-19T23:41:39.048Z,0.90
2022-08-19T23:44:51.697Z,0.93
2022-08-19T23:47:55.636Z,1.10
2022-08-19T23:51:01.221Z,1.15
2022-08-19T23:54:03.954Z,0.90
2022-08-19T23:57:13.878Z,1.20
